createdAt,value
2023-01-29T00:02:48.442Z,73.49
2023-01-29T00:05:51.179Z,73.42
2023-01-29T00:08:53.959Z,73.53
2023-01-29T00:11:58.030Z,73.70
2023-01-29T00:15:02.933Z,73.65
2023-01-29T00:18:06.310Z,73.78
2023-01-29T00:21:10.950Z,73.97
2023-01-29T00:24:14.056Z,74.33
2023-01-29T00:27:18.142Z,74.35
2023-01-29T00:30:21.430Z,74.33
2023-01-29T00:33:24.304Z,74.48
2023-01-29T00:36:28.010Z,74.98
2023-01-29T00:39:47.391Z,74.59
2023-01-29T00:43:10.013Z,74.52
2023-01-29T00:46:12.764Z,74.35
2023-01-29T00:49:16.826Z,74.53
2023-01-29T00:52:25.689Z,74.59
2023-01-29T00:55:28.506Z,74.31
2023-01-29T00:58:34.613Z,74.12
2023-01-29T01:02:09.221Z,73.96
2023-01-29T01:05:18.004Z,74.11
2023-01-29T01:08:37.535Z,73.84
2023-01-29T01:11:40.367Z,73.52
2023-01-29T01:14:46.013Z,73.50
2023-01-29T01:17:49.606Z,72.89
2023-01-29T01:20:59.540Z,73.25
2023-01-29T01:24:05.761Z,73.67
2023-01-29T01:27:08.699Z,73.89
2023-01-29T01:30:14.927Z,73.13
2023-01-29T01:33:18.477Z,73.74
2023-01-29T01:36:21.519Z,73.66
2023-01-29T01:39:25.177Z,74.09
2023-01-29T01:42:31.173Z,73.85
2023-01-29T01:45:37.112Z,73.61
2023-01-29T01:48:40.013Z,73.60
2023-01-29T01:51:46.242Z,73.10
2023-01-29T01:54:50.110Z,73.67
2023-01-29T01:57:56.760Z,73.10
2023-01-29T02:01:02.094Z,73.46
2023-01-29T02:04:25.868Z,73.75
2023-01-29T02:07:46.331Z,73.80
2023-01-29T02:10:49.954Z,73.01
2023-01-29T02:13:54.588Z,72.41
2023-01-29T02:16:58.877Z,72.37
2023-01-29T02:20:09.758Z,72.31
2023-01-29T02:23:30.844Z,72.77
2023-01-29T02:26:56.793Z,73.19
2023-01-29T02:30:07.206Z,73.14
2023-01-29T02:33:22.225Z,73.39
2023-01-29T02:36:33.655Z,73.22
2023-01-29T02:39:41.285Z,73.50
2023-01-29T02:42:51.939Z,73.02
2023-01-29T02:46:02.756Z,72.98
2023-01-29T02:49:12.052Z,73.29
2023-01-29T02:52:19.024Z,73.37
2023-01-29T02:55:27.427Z,72.96
2023-01-29T02:58:34.467Z,73.20
2023-01-29T03:01:45.990Z,73.31
2023-01-29T03:04:55.384Z,72.58
2023-01-29T03:08:03.950Z,72.63
2023-01-29T03:11:08.030Z,72.37
2023-01-29T03:14:16.933Z,72.53
2023-01-29T03:17:22.269Z,71.61
2023-01-29T03:20:32.088Z,71.95
2023-01-29T03:23:54.821Z,72.05
2023-01-29T03:27:19.871Z,72.19
2023-01-29T03:30:43.915Z,72.53
2023-01-29T03:33:51.992Z,72.35
2023-01-29T03:36:58.967Z,72.82
2023-01-29T03:40:02.775Z,73.39
2023-01-29T03:43:12.114Z,73.52
2023-01-29T03:46:23.327Z,72.98
2023-01-29T03:49:44.862Z,73.35
2023-01-29T03:52:52.930Z,73.13
2023-01-29T03:56:02.134Z,73.40
2023-01-29T03:59:15.594Z,73.13
2023-01-29T04:02:28.093Z,73.04
2023-01-29T04:05:41.028Z,72.83
2023-01-29T04:08:52.489Z,72.86
2023-01-29T04:12:02.031Z,72.99
2023-01-29T04:15:10.442Z,73.01
2023-01-29T04:18:15.521Z,72.86
2023-01-29T04:21:20.393Z,72.13
2023-01-29T04:24:23.272Z,72.90
2023-01-29T04:27:36.814Z,73.80
2023-01-29T04:30:48.370Z,73.68
2023-01-29T04:33:58.839Z,73.96
2023-01-29T04:37:13.741Z,73.66
2023-01-29T04:40:21.914Z,74.23
2023-01-29T04:43:29.875Z,74.77
2023-01-29T04:46:40.428Z,75.45
2023-01-29T04:49:50.589Z,75.27
2023-01-29T04:53:00.846Z,74.53
2023-01-29T04:56:10.351Z,73.89
2023-01-29T04:59:18.787Z,74.27
2023-01-29T05:02:25.602Z,74.03
2023-01-29T05:05:30.219Z,74.18
2023-01-29T05:08:37.905Z,73.96
2023-01-29T05:11:40.939Z,73.37
2023-01-29T05:14:46.439Z,73.99
2023-01-29T05:17:49.100Z,74.32
2023-01-29T05:20:54.102Z,74.05
2023-01-29T05:24:16.558Z,73.59
2023-01-29T05:27:39.992Z,73.94
2023-01-29T05:30:43.386Z,74.11
2023-01-29T05:33:46.182Z,73.87
2023-01-29T05:36:48.961Z,73.66
2023-01-29T05:39:53.152Z,73.65
2023-01-29T05:42:55.919Z,73.75
2023-01-29T05:46:00.366Z,74.23
2023-01-29T05:49:03.059Z,73.41
2023-01-29T05:52:05.970Z,72.92
2023-01-29T05:55:11.501Z,72.84
2023-01-29T05:58:14.746Z,71.81
2023-01-29T06:01:19.827Z,72.68
2023-01-29T06:04:22.662Z,72.61
2023-01-29T06:07:25.550Z,73.13
2023-01-29T06:10:29.741Z,73.83
2023-01-29T06:13:32.456Z,73.65
2023-01-29T06:16:35.276Z,73.82
2023-01-29T06:19:38.074Z,74.06
2023-01-29T06:22:41.155Z,73.88
2023-01-29T06:25:45.231Z,74.04
2023-01-29T06:28:50.362Z,73.49
2023-01-29T06:31:53.136Z,73.71
2023-01-29T06:34:55.883Z,74.75
2023-01-29T06:37:58.595Z,74.33
2023-01-29T06:41:10.808Z,74.82
2023-01-29T06:44:13.700Z,74.68
2023-01-29T06:47:16.561Z,73.50
2023-01-29T06:50:19.591Z,73.25
2023-01-29T06:53:22.469Z,73.76
2023-01-29T06:56:26.635Z,74.23
2023-01-29T06:59:30.001Z,73.97
2023-01-29T07:02:35.738Z,73.66
2023-01-29T07:05:38.775Z,73.96
2023-01-29T07:08:42.078Z,73.07
2023-01-29T07:11:46.247Z,73.20
2023-01-29T07:14:49.213Z,73.49
2023-01-29T07:17:59.718Z,74.53
2023-01-29T07:21:06.861Z,74.11
2023-01-29T07:24:10.140Z,74.82
2023-01-29T07:27:14.249Z,74.32
2023-01-29T07:30:18.779Z,74.58
2023-01-29T07:33:21.868Z,74.21
2023-01-29T07:36:25.237Z,73.98
2023-01-29T07:39:28.184Z,73.90
2023-01-29T07:42:32.522Z,73.89
2023-01-29T07:45:36.316Z,73.79
2023-01-29T07:48:39.123Z,74.15
2023-01-29T07:51:41.931Z,74.10
2023-01-29T07:54:44.807Z,74.14
2023-01-29T07:57:49.111Z,74.39
2023-01-29T08:00:51.856Z,74.39
2023-01-29T08:03:54.559Z,73.96
2023-01-29T08:06:57.349Z,74.18
2023-01-29T08:10:00.025Z,73.18
2023-01-29T08:13:05.429Z,73.32
2023-01-29T08:16:09.212Z,74.01
2023-01-29T08:19:11.921Z,73.33
2023-01-29T08:22:15.288Z,73.26
2023-01-29T08:25:18.036Z,72.56
2023-01-29T08:28:22.222Z,72.60
2023-01-29T08:31:24.927Z,72.23
2023-01-29T08:34:27.613Z,72.52
2023-01-29T08:37:30.257Z,72.61
2023-01-29T08:40:34.408Z,72.87
2023-01-29T08:43:38.672Z,73.02
2023-01-29T08:46:41.729Z,73.12
2023-01-29T08:49:44.342Z,73.38
2023-01-29T08:52:47.107Z,73.73
2023-01-29T08:55:49.780Z,73.49
2023-01-29T08:58:54.123Z,73.37
2023-01-29T09:01:56.787Z,72.65
2023-01-29T09:04:59.430Z,73.03
2023-01-29T09:08:02.093Z,72.34
2023-01-29T09:11:04.817Z,71.64
2023-01-29T09:14:09.740Z,72.46
2023-01-29T09:17:12.432Z,72.00
2023-01-29T09:20:15.539Z,71.09
2023-01-29T09:23:18.298Z,70.22
2023-01-29T09:26:20.963Z,70.34
2023-01-29T09:29:25.062Z,69.60
2023-01-29T09:32:59.958Z,70.63
2023-01-29T09:35:52.999Z,70.32
2023-01-29T09:38:55.727Z,70.34
2023-01-29T09:42:03.627Z,70.55
2023-01-29T09:45:13.936Z,69.73
2023-01-29T09:48:17.676Z,69.43
2023-01-29T09:51:28.521Z,67.48
2023-01-29T09:54:36.949Z,67.42
2023-01-29T09:57:46.768Z,66.74
2023-01-29T10:01:00.236Z,65.57
2023-01-29T10:04:19.713Z,65.50
2023-01-29T10:07:37.782Z,64.02
2023-01-29T10:10:50.203Z,63.26
2023-01-29T10:14:05.304Z,62.69
2023-01-29T10:17:29.358Z,62.95
2023-01-29T10:20:48.907Z,64.28
2023-01-29T10:23:55.164Z,64.12
2023-01-29T10:26:59.217Z,64.79
2023-01-29T10:30:05.836Z,64.00
2023-01-29T10:33:18.488Z,62.81
2023-01-29T10:36:27.688Z,63.79
2023-01-29T10:39:32.022Z,63.83
2023-01-29T10:42:41.215Z,64.74
2023-01-29T10:45:50.512Z,65.48
2023-01-29T10:49:06.693Z,65.19
2023-01-29T10:52:22.499Z,65.59
2023-01-29T10:55:40.871Z,64.43
2023-01-29T10:58:50.105Z,65.22
2023-01-29T11:01:53.190Z,65.85
2023-01-29T11:04:57.304Z,66.08
2023-01-29T11:08:09.601Z,63.98
2023-01-29T11:11:15.843Z,63.74
2023-01-29T11:14:23.903Z,63.96
2023-01-29T11:17:27.419Z,64.52
2023-01-29T11:20:33.873Z,63.79
2023-01-29T11:23:38.909Z,65.03
2023-01-29T11:26:44.146Z,64.66
2023-01-29T11:29:49.910Z,64.27
2023-01-29T11:33:08.786Z,63.82
2023-01-29T11:36:33.983Z,64.51
2023-01-29T11:39:44.961Z,64.89
2023-01-29T11:42:48.139Z,64.18
2023-01-29T11:45:52.962Z,64.60
2023-01-29T11:48:59.275Z,64.35
2023-01-29T11:52:11.302Z,64.17
2023-01-29T11:55:19.339Z,63.43
2023-01-29T11:58:28.726Z,63.27
2023-01-29T12:01:34.471Z,61.34
2023-01-29T12:04:40.937Z,62.55
2023-01-29T12:07:46.409Z,62.45
2023-01-29T12:10:49.041Z,59.67
2023-01-29T12:13:55.382Z,57.75
2023-01-29T12:17:03.044Z,56.33
2023-01-29T12:20:13.832Z,56.00
2023-01-29T12:23:26.742Z,53.05
2023-01-29T12:26:33.800Z,52.42
2023-01-29T12:29:46.426Z,49.39
2023-01-29T12:32:55.567Z,48.24
2023-01-29T12:36:06.586Z,47.44
2023-01-29T12:39:16.037Z,46.02
2023-01-29T12:42:22.488Z,47.07
2023-01-29T12:45:28.134Z,47.30
2023-01-29T12:48:34.796Z,48.66
2023-01-29T12:51:45.109Z,46.55
2023-01-29T12:54:55.413Z,48.83
2023-01-29T12:58:00.493Z,48.43
2023-01-29T13:01:09.758Z,49.29
2023-01-29T13:04:20.287Z,50.62
2023-01-29T13:07:30.802Z,51.18
2023-01-29T13:10:39.558Z,51.21
2023-01-29T13:13:55.012Z,51.67
2023-01-29T13:17:10.232Z,50.59
2023-01-29T13:20:18.676Z,48.77
2023-01-29T13:23:23.567Z,47.07
2023-01-29T13:26:28.083Z,45.72
2023-01-29T13:29:32.041Z,47.58
2023-01-29T13:32:36.797Z,48.25
2023-01-29T13:35:41.747Z,49.91
2023-01-29T13:38:45.323Z,50.62
2023-01-29T13:41:51.960Z,51.63
2023-01-29T13:44:57.299Z,51.96
2023-01-29T13:48:10.899Z,53.06
2023-01-29T13:51:19.579Z,53.10
2023-01-29T13:54:25.702Z,53.49
2023-01-29T13:57:51.590Z,56.77
2023-01-29T14:00:55.411Z,56.08
2023-01-29T14:04:06.024Z,56.40
2023-01-29T14:07:49.915Z,57.11
2023-01-29T14:11:34.387Z,57.13
2023-01-29T14:15:22.122Z,57.55
2023-01-29T14:18:27.037Z,58.82
2023-01-29T14:21:33.108Z,60.27
2023-01-29T14:24:37.481Z,61.07
2023-01-29T14:27:40.180Z,59.67
2023-01-29T14:30:45.766Z,60.97
2023-01-29T14:33:48.458Z,61.09
2023-01-29T14:36:55.517Z,62.96
2023-01-29T14:40:08.994Z,61.85
2023-01-29T14:43:19.971Z,61.65
2023-01-29T14:46:46.030Z,62.13
2023-01-29T14:49:54.185Z,62.55
2023-01-29T14:53:02.531Z,62.86
2023-01-29T14:56:15.236Z,63.12
2023-01-29T14:59:21.837Z,63.81
2023-01-29T15:02:27.626Z,64.30
2023-01-29T15:05:33.533Z,64.94
2023-01-29T15:08:41.753Z,64.75
2023-01-29T15:11:58.911Z,65.26
2023-01-29T15:15:08.876Z,65.61
2023-01-29T15:18:18.351Z,66.92
2023-01-29T15:21:21.178Z,67.25
2023-01-29T15:24:23.835Z,66.97
2023-01-29T15:27:28.914Z,67.18
2023-01-29T15:30:35.090Z,67.56
2023-01-29T15:33:38.649Z,68.13
2023-01-29T15:36:41.383Z,69.16
2023-01-29T15:39:45.024Z,69.33
2023-01-29T15:42:49.295Z,69.58
2023-01-29T15:45:52.879Z,69.70
2023-01-29T15:48:57.331Z,70.23
2023-01-29T15:52:03.988Z,70.53
2023-01-29T15:55:08.575Z,70.94
2023-01-29T15:58:18.226Z,70.36
2023-01-29T16:01:21.613Z,71.41
2023-01-29T16:04:28.803Z,71.77
2023-01-29T16:07:32.550Z,72.24
2023-01-29T16:10:35.428Z,71.48
2023-01-29T16:13:43.237Z,72.17
2023-01-29T16:16:46.086Z,71.94
2023-01-29T16:19:57.284Z,72.55
2023-01-29T16:23:01.067Z,73.48
2023-01-29T16:26:07.946Z,73.80
2023-01-29T16:29:15.018Z,73.41
2023-01-29T16:32:18.227Z,73.85
2023-01-29T16:35:21.147Z,73.44
2023-01-29T16:38:32.150Z,73.62
2023-01-29T16:41:37.598Z,73.45
2023-01-29T16:44:47.274Z,74.12
2023-01-29T16:48:01.497Z,74.77
2023-01-29T16:51:06.399Z,75.25
2023-01-29T16:54:16.032Z,75.15
2023-01-29T16:57:23.233Z,75.96
2023-01-29T17:00:29.657Z,74.78
2023-01-29T17:03:35.403Z,74.37
2023-01-29T17:06:39.360Z,74.59
2023-01-29T17:09:42.443Z,74.88
2023-01-29T17:12:54.533Z,75.56
2023-01-29T17:16:03.326Z,76.21
2023-01-29T17:19:18.030Z,76.04
2023-01-29T17:22:20.683Z,76.31
2023-01-29T17:25:23.900Z,73.77
2023-01-29T17:28:26.636Z,74.77
2023-01-29T17:31:31.720Z,74.95
2023-01-29T17:34:34.432Z,74.28
2023-01-29T17:37:37.062Z,74.06
2023-01-29T17:40:43.691Z,74.79
2023-01-29T17:43:46.681Z,74.82
2023-01-29T17:46:50.920Z,75.40
2023-01-29T17:49:53.566Z,75.50
2023-01-29T17:52:56.226Z,75.27
2023-01-29T17:55:58.942Z,76.65
2023-01-29T17:59:01.925Z,75.90
2023-01-29T18:02:06.226Z,76.33
2023-01-29T18:05:09.446Z,76.54
2023-01-29T18:08:17.463Z,76.15
2023-01-29T18:11:20.247Z,74.89
2023-01-29T18:14:22.964Z,75.05
2023-01-29T18:17:26.999Z,75.47
2023-01-29T18:20:30.181Z,76.60
2023-01-29T18:23:35.340Z,76.04
2023-01-29T18:26:39.426Z,76.46
2023-01-29T18:29:42.203Z,76.66
2023-01-29T18:32:47.568Z,77.27
2023-01-29T18:35:50.283Z,77.53
2023-01-29T18:38:52.939Z,76.76
2023-01-29T18:41:55.595Z,77.58
2023-01-29T18:44:58.298Z,77.83
2023-01-29T18:48:02.407Z,76.81
2023-01-29T18:51:05.505Z,76.88
2023-01-29T18:54:08.141Z,75.49
2023-01-29T18:57:13.747Z,75.96
2023-01-29T19:00:17.819Z,77.03
2023-01-29T19:03:21.935Z,76.47
2023-01-29T19:06:26.129Z,76.83
2023-01-29T19:09:28.814Z,77.98
2023-01-29T19:12:31.716Z,79.15
2023-01-29T19:15:37.983Z,77.80
2023-01-29T19:18:42.394Z,77.17
2023-01-29T19:21:45.422Z,76.66
2023-01-29T19:24:48.167Z,76.09
2023-01-29T19:27:50.828Z,76.21
2023-01-29T19:30:53.496Z,76.18
2023-01-29T19:33:57.945Z,76.77
2023-01-29T19:37:00.872Z,76.23
2023-01-29T19:40:03.554Z,77.00
2023-01-29T19:43:06.309Z,77.65
2023-01-29T19:46:09.229Z,77.64
2023-01-29T19:49:13.331Z,78.39
2023-01-29T19:52:49.707Z,78.55
2023-01-29T19:56:00.442Z,77.65
2023-01-29T19:59:03.148Z,77.02
2023-01-29T20:02:05.801Z,77.02
2023-01-29T20:05:12.027Z,78.09
2023-01-29T20:08:14.728Z,76.74
2023-01-29T20:11:19.147Z,77.04
2023-01-29T20:14:22.073Z,76.41
2023-01-29T20:17:24.734Z,76.85
2023-01-29T20:20:28.995Z,78.41
2023-01-29T20:23:38.203Z,78.14
2023-01-29T20:26:41.323Z,77.80
2023-01-29T20:29:45.251Z,78.42
2023-01-29T20:32:48.310Z,78.48
2023-01-29T20:36:16.128Z,79.54
2023-01-29T20:40:00.265Z,76.71
2023-01-29T20:43:46.271Z,78.04
2023-01-29T20:52:18.221Z,78.80
2023-01-29T20:56:09.423Z,77.95
2023-01-29T21:16:44.739Z,77.81
2023-01-29T21:20:15.176Z,77.92
2023-01-29T21:24:00.047Z,78.14
2023-01-29T21:27:26.666Z,79.57
2023-01-29T21:31:07.938Z,78.36
2023-01-29T21:35:00.016Z,77.57
2023-01-29T21:42:36.760Z,78.82
2023-01-29T21:46:33.236Z,80.54
2023-01-29T21:50:44.154Z,81.29
2023-01-29T21:54:42.529Z,79.13
2023-01-29T21:58:30.288Z,80.97
2023-01-29T22:02:23.348Z,78.87
2023-01-29T22:05:48.146Z,78.47
2023-01-29T22:09:31.280Z,78.37
2023-01-29T22:17:39.845Z,78.41
2023-01-29T22:21:00.438Z,77.93
2023-01-29T22:24:23.501Z,78.65
2023-01-29T22:28:04.937Z,78.22
2023-01-29T22:40:24.013Z,77.31
2023-01-29T22:47:21.834Z,78.88
2023-01-29T22:50:50.001Z,77.52
2023-01-29T22:54:44.652Z,77.35
2023-01-29T22:58:01.615Z,77.09
2023-01-29T23:05:06.801Z,79.24
2023-01-29T23:08:33.327Z,79.31
2023-01-29T23:16:40.232Z,79.50
2023-01-29T23:19:54.315Z,80.22
2023-01-29T23:23:09.166Z,81.65
2023-01-29T23:27:06.626Z,82.32
2023-01-29T23:30:14.323Z,80.64
2023-01-29T23:33:22.772Z,78.76
2023-01-29T23:36:29.724Z,79.80
2023-01-29T23:39:41.220Z,81.22
2023-01-29T23:42:48.066Z,82.10
2023-01-29T23:45:55.297Z,82.68
2023-01-29T23:49:08.346Z,83.32
2023-01-29T23:52:16.961Z,82.01
2023-01-29T23:55:24.035Z,81.89
2023-01-29T23:58:34.490Z,81.09
